Terminal Aerodrome Forecast
Issued by NWS

Home | Current Version | Previous Version | Graphics & Text | Print | Product List | Glossary On
Versions: 1 2 3 4 5 6 7 8 9 10 11 12 13 14 15 16 17 18 19 20 21 22
000
FTUS43 KTOP 301452 AAA
TAFMHK
TAF AMD
KMHK 301452Z 3015/0112 26011KT P6SM BKN015 OVC020
     FM302000 28008KT P6SM SCT030 BKN040
     FM010400 28011KT P6SM SCT006 BKN012=

USA.gov is the U.S. government's official web portal to all federal, state and local government web resources and services.